CPX763 Details

Departure: Liège Airport (EBLG)
Arrival: Incheon International Airport (RKSI)
Route: LNO5E LNO BEDSI Z671 TOBAK N858 MOSEX GOVEN L979 GRD T509 BUGOR G724 TE R364 IWV R364 US G901 BW A943 ARISA G3 AKB A113 TOMGO A355 MNS L147 KAMUD W186 SADAN W187 TUSLI W112 BILDA W619 CHW V67 YBL W199 YHD B215 VYK A326 DONVO G597 GONAV GONAV2M


Current Weather Information
EBLG 260220Z 19007KT CAVOK 09/06 Q1010 NOSIG
RKSI 260200Z 05008KT 4200 -RA BR SCT005 BKN030 OVC100 08/06 Q1013 NOSIG